Time;durP1;ratioP1;P1;durP2;ratioP2;P2;SDS_P1;SDS_P2;PMS_P1;PMS_P2;Temp;Humidity;BMP_temperature;BMP_pressure;BME280_temperature;BME280_humidity;BME280_pressure;Samples;Min_cycle;Max_cycle;Signal;HPM_P1;HPM_P2
2022/01/13 00:02:26;;;;;;;31.75;20.13;;;;;;;;;;5118345;28;20203;-67
2022/01/13 00:04:52;;;;;;;28.55;19.73;;;;;;;;;;5104827;28;20250;-67
2022/01/13 00:07:20;;;;;;;30.25;19.42;;;;;;;;;;5101736;28;20249;-67
2022/01/13 00:09:47;;;;;;;28.08;18.98;;;;;;;;;;5121019;28;20199;-67
2022/01/13 00:12:16;;;;;;;28.42;19.50;;;;;;;;;;5121791;28;20202;-67
2022/01/13 00:14:57;;;;;;;32.15;19.60;;;;;;;;;;5108663;28;20227;-67
2022/01/13 00:17:31;;;;;;;29.80;20.23;;;;;;;;;;5101228;28;20571;-67
2022/01/13 00:22:49;;;;;;;33.50;20.30;;;;;;;;;;5118933;28;20203;-67
2022/01/13 00:25:18;;;;;;;29.73;19.75;;;;;;;;;;5121697;28;20244;-67
2022/01/13 00:27:52;;;;;;;27.42;18.90;;;;;;;;;;5105628;28;20257;-67
2022/01/13 00:30:20;;;;;;;31.88;20.92;;;;;;;;;;5119028;28;20222;-67
2022/01/13 00:32:47;;;;;;;35.15;21.88;;;;;;;;;;5120407;28;20553;-67
2022/01/13 00:35:14;;;;;;;34.42;21.23;;;;;;;;;;5120999;28;20555;-67
2022/01/13 00:37:41;;;;;;;31.92;20.60;;;;;;;;;;5108322;28;20207;-67
2022/01/13 00:40:08;;;;;;;31.02;20.02;;;;;;;;;;5113302;28;20199;-67
2022/01/13 00:42:35;;;;;;;29.60;20.30;;;;;;;;;;5121654;28;20199;-67
2022/01/13 00:45:03;;;;;;;30.02;20.30;;;;;;;;;;5121527;28;20226;-67
2022/01/13 00:47:30;;;;;;;32.65;21.85;;;;;;;;;;5115876;28;20511;-67
2022/01/13 00:49:57;;;;;;;36.70;21.88;;;;;;;;;;5121164;28;20215;-67
2022/01/13 00:52:24;;;;;;;28.95;19.80;;;;;;;;;;5121771;28;20207;-67
2022/01/13 00:54:51;;;;;;;36.97;21.85;;;;;;;;;;5120282;28;20214;-66
2022/01/13 00:57:20;;;;;;;33.88;21.67;;;;;;;;;;5116908;28;20500;-67
2022/01/13 00:59:46;;;;;;;37.13;23.02;;;;;;;;;;5119751;28;20207;-67
2022/01/13 01:02:13;;;;;;;33.50;21.75;;;;;;;;;;5129213;28;20525;-67
2022/01/13 01:04:39;;;;;;;34.70;23.15;;;;;;;;;;5127995;28;20202;-67
2022/01/13 01:07:05;;;;;;;32.20;22.00;;;;;;;;;;5127990;28;20523;-67
2022/01/13 01:09:39;;;;;;;38.75;23.25;;;;;;;;;;5128257;28;20213;-67
2022/01/13 01:12:08;;;;;;;34.38;22.33;;;;;;;;;;5128210;28;20230;-67
2022/01/13 01:14:37;;;;;;;35.85;22.67;;;;;;;;;;5128279;28;20195;-67
2022/01/13 01:17:04;;;;;;;37.17;23.13;;;;;;;;;;5120288;28;20192;-67
2022/01/13 01:19:30;;;;;;;36.10;24.13;;;;;;;;;;5107671;28;20249;-67
2022/01/13 01:25:00;;;;;;;33.65;22.30;;;;;;;;;;5127965;28;20221;-67
2022/01/13 01:27:32;;;;;;;34.90;21.77;;;;;;;;;;5117335;28;20195;-67
2022/01/13 01:30:03;;;;;;;33.45;22.77;;;;;;;;;;5108308;28;20229;-67
2022/01/13 01:32:31;;;;;;;36.08;23.27;;;;;;;;;;5119594;28;20183;-67
2022/01/13 01:35:01;;;;;;;42.35;25.05;;;;;;;;;;5116971;28;20192;-67
2022/01/13 01:37:30;;;;;;;38.33;23.80;;;;;;;;;;5119502;28;20215;-67
2022/01/13 01:39:57;;;;;;;40.58;23.40;;;;;;;;;;5128599;28;20543;-67
2022/01/13 01:42:24;;;;;;;37.45;23.48;;;;;;;;;;5114556;28;20192;-67
2022/01/13 01:44:54;;;;;;;34.55;23.67;;;;;;;;;;5130552;28;20222;-67
2022/01/13 01:47:21;;;;;;;37.78;24.15;;;;;;;;;;5132529;28;20195;-67
2022/01/13 01:49:48;;;;;;;35.00;23.00;;;;;;;;;;5133278;28;20205;-67
2022/01/13 01:52:16;;;;;;;37.20;24.10;;;;;;;;;;5132486;28;20231;-67
2022/01/13 01:54:43;;;;;;;33.08;22.63;;;;;;;;;;5132800;28;20183;-67
2022/01/13 01:57:09;;;;;;;37.97;23.98;;;;;;;;;;5132643;28;20202;-67
2022/01/13 01:59:39;;;;;;;35.95;23.17;;;;;;;;;;5132799;28;20202;-67
2022/01/13 02:02:07;;;;;;;37.47;23.55;;;;;;;;;;5133157;28;20191;-67
2022/01/13 02:04:35;;;;;;;34.58;22.52;;;;;;;;;;5131638;28;20199;-67
2022/01/13 02:07:03;;;;;;;36.58;22.80;;;;;;;;;;5132463;28;20267;-67
2022/01/13 02:09:30;;;;;;;35.20;23.60;;;;;;;;;;5133266;28;20294;-67
2022/01/13 02:12:02;;;;;;;34.72;22.40;;;;;;;;;;5132955;28;20240;-67
2022/01/13 02:14:35;;;;;;;31.92;21.67;;;;;;;;;;5128857;28;20203;-67
2022/01/13 02:17:05;;;;;;;36.47;23.67;;;;;;;;;;5115458;28;20241;-67
2022/01/13 02:19:34;;;;;;;30.83;21.50;;;;;;;;;;5128868;28;20282;-67
2022/01/13 02:22:03;;;;;;;34.05;22.17;;;;;;;;;;5132471;28;20203;-67
2022/01/13 02:24:29;;;;;;;33.47;23.20;;;;;;;;;;5131611;28;20199;-67
2022/01/13 02:26:56;;;;;;;35.33;23.08;;;;;;;;;;5131441;28;20409;-67
2022/01/13 02:29:22;;;;;;;31.23;21.77;;;;;;;;;;5115413;28;20191;-67
2022/01/13 02:31:49;;;;;;;39.03;22.88;;;;;;;;;;5111635;28;20216;-68
2022/01/13 02:34:16;;;;;;;33.50;23.00;;;;;;;;;;5112163;28;20196;-68
2022/01/13 02:36:44;;;;;;;33.72;21.95;;;;;;;;;;5125854;28;20187;-68
2022/01/13 02:39:12;;;;;;;35.83;22.63;;;;;;;;;;5131013;28;20495;-68
2022/01/13 02:41:38;;;;;;;32.78;21.42;;;;;;;;;;5131891;28;20187;-68
2022/01/13 02:44:13;;;;;;;31.65;21.60;;;;;;;;;;5132221;28;20420;-67
2022/01/13 02:46:56;;;;;;;33.38;21.83;;;;;;;;;;5122930;28;20246;-68
2022/01/13 02:49:24;;;;;;;32.65;22.17;;;;;;;;;;5125879;28;20254;-68
2022/01/13 02:51:51;;;;;;;31.20;21.75;;;;;;;;;;5131763;28;20572;-68
2022/01/13 02:54:19;;;;;;;31.60;20.83;;;;;;;;;;5126477;28;20188;-68
2022/01/13 02:56:46;;;;;;;34.03;21.45;;;;;;;;;;5118718;28;20191;-68
2022/01/13 02:59:13;;;;;;;31.92;22.50;;;;;;;;;;5131363;28;20195;-68
2022/01/13 03:01:40;;;;;;;31.95;20.65;;;;;;;;;;5131739;28;20199;-67
2022/01/13 03:04:07;;;;;;;31.73;20.65;;;;;;;;;;5131817;28;20381;-68
2022/01/13 03:06:35;;;;;;;31.40;22.25;;;;;;;;;;5123630;28;20188;-68
2022/01/13 03:09:04;;;;;;;31.15;20.85;;;;;;;;;;5113932;28;20217;-68
2022/01/13 03:11:34;;;;;;;28.25;20.80;;;;;;;;;;5131429;28;20215;-68
2022/01/13 03:14:01;;;;;;;35.58;21.67;;;;;;;;;;5131580;28;20236;-68
2022/01/13 03:16:28;;;;;;;30.70;20.98;;;;;;;;;;5119300;28;20191;-68
2022/01/13 03:18:55;;;;;;;33.60;21.25;;;;;;;;;;5110607;28;20224;-68
2022/01/13 03:21:21;;;;;;;32.25;21.23;;;;;;;;;;5128806;28;20192;-68
2022/01/13 03:23:48;;;;;;;30.25;21.10;;;;;;;;;;5131671;28;20195;-67
2022/01/13 03:26:14;;;;;;;30.65;22.05;;;;;;;;;;5122232;28;20432;-67
2022/01/13 03:28:51;;;;;;;37.30;21.17;;;;;;;;;;5110873;28;20234;-68
2022/01/13 03:31:18;;;;;;;30.70;21.10;;;;;;;;;;5110682;28;20207;-68
2022/01/13 03:33:44;;;;;;;32.15;20.42;;;;;;;;;;5111022;28;20196;-68
2022/01/13 03:36:11;;;;;;;30.23;20.75;;;;;;;;;;5126457;28;20191;-68
2022/01/13 03:38:37;;;;;;;35.20;21.10;;;;;;;;;;5130676;28;20195;-68
2022/01/13 03:41:04;;;;;;;36.88;21.38;;;;;;;;;;5131052;28;20199;-68
2022/01/13 03:43:32;;;;;;;32.17;21.30;;;;;;;;;;5130736;28;20195;-68
2022/01/13 03:45:59;;;;;;;36.72;22.20;;;;;;;;;;5120743;28;20219;-67
2022/01/13 03:48:26;;;;;;;30.40;20.15;;;;;;;;;;5110889;28;20196;-67
2022/01/13 03:50:52;;;;;;;35.20;21.58;;;;;;;;;;5130705;28;20202;-67
2022/01/13 03:53:57;;;;;;;32.75;21.90;;;;;;;;;;5130859;28;20195;-67
2022/01/13 03:56:41;;;;;;;32.22;21.38;;;;;;;;;;5112444;28;20191;-67
2022/01/13 03:59:32;;;;;;;31.33;21.00;;;;;;;;;;5110365;28;20195;-67
2022/01/13 04:02:04;;;;;;;32.40;20.10;;;;;;;;;;5109974;28;20191;-67
2022/01/13 04:04:31;;;;;;;31.02;21.17;;;;;;;;;;5124217;28;20229;-67
2022/01/13 04:07:05;;;;;;;34.20;21.95;;;;;;;;;;5130706;28;20195;-67
2022/01/13 04:09:51;;;;;;;34.42;21.55;;;;;;;;;;5130806;28;20194;-67
2022/01/13 04:12:20;;;;;;;30.83;20.00;;;;;;;;;;5130174;28;20225;-67
2022/01/13 04:14:53;;;;;;;34.90;22.23;;;;;;;;;;5129800;28;20209;-67
2022/01/13 04:17:21;;;;;;;31.85;21.10;;;;;;;;;;5130832;28;20433;-67
2022/01/13 04:19:47;;;;;;;33.75;21.60;;;;;;;;;;5130558;28;20202;-67
2022/01/13 04:22:14;;;;;;;31.65;21.45;;;;;;;;;;5124656;28;20180;-67
2022/01/13 04:24:45;;;;;;;32.80;21.15;;;;;;;;;;5115819;28;20187;-67
2022/01/13 04:27:20;;;;;;;29.88;20.45;;;;;;;;;;5130098;28;20184;-67
2022/01/13 04:29:49;;;;;;;33.33;22.20;;;;;;;;;;5130109;28;20236;-69
2022/01/13 04:32:16;;;;;;;30.98;21.27;;;;;;;;;;5130694;28;20210;-67
2022/01/13 04:34:44;;;;;;;34.97;22.15;;;;;;;;;;5128949;28;20220;-67
2022/01/13 04:37:10;;;;;;;38.00;23.45;;;;;;;;;;5129886;28;20195;-67
2022/01/13 04:39:37;;;;;;;32.72;21.75;;;;;;;;;;5130750;28;20195;-67
2022/01/13 04:42:03;;;;;;;34.17;21.42;;;;;;;;;;5120449;28;20225;-67
2022/01/13 04:44:39;;;;;;;32.40;21.55;;;;;;;;;;5112419;28;20201;-67
2022/01/13 04:47:07;;;;;;;33.58;21.40;;;;;;;;;;5123521;28;20183;-67
2022/01/13 04:49:34;;;;;;;32.50;20.65;;;;;;;;;;5123451;28;20201;-67
2022/01/13 04:52:02;;;;;;;36.35;22.02;;;;;;;;;;5123261;28;20215;-67
2022/01/13 04:54:28;;;;;;;33.10;21.73;;;;;;;;;;5114586;28;20388;-67
2022/01/13 04:57:06;;;;;;;33.78;21.90;;;;;;;;;;5120450;28;20210;-68
2022/01/13 04:59:33;;;;;;;36.15;22.73;;;;;;;;;;5123626;28;20183;-68
2022/01/13 05:02:00;;;;;;;31.60;20.88;;;;;;;;;;5123147;28;20191;-68
2022/01/13 05:04:26;;;;;;;32.67;21.77;;;;;;;;;;5122941;28;20240;-68
2022/01/13 05:06:53;;;;;;;37.00;22.13;;;;;;;;;;5104632;28;20203;-68
2022/01/13 05:09:20;;;;;;;32.35;21.25;;;;;;;;;;5111824;28;20205;-65
2022/01/13 05:11:47;;;;;;;32.22;21.55;;;;;;;;;;5123362;28;20219;-67
2022/01/13 05:14:13;;;;;;;34.15;22.98;;;;;;;;;;5122992;28;20195;-67
2022/01/13 05:16:53;;;;;;;33.20;21.50;;;;;;;;;;5106555;28;20233;-67
2022/01/13 05:19:24;;;;;;;34.13;22.17;;;;;;;;;;5102267;28;20370;-68
2022/01/13 05:22:15;;;;;;;34.72;21.85;;;;;;;;;;5103051;28;20504;-68
2022/01/13 05:24:44;;;;;;;31.67;21.67;;;;;;;;;;5102196;28;20196;-67
2022/01/13 05:27:11;;;;;;;31.63;21.67;;;;;;;;;;5118298;28;20196;-66
2022/01/13 05:29:37;;;;;;;38.58;23.23;;;;;;;;;;5122949;28;20530;-65
2022/01/13 05:32:04;;;;;;;33.60;21.80;;;;;;;;;;5122349;28;20219;-66
2022/01/13 05:34:30;;;;;;;34.22;22.52;;;;;;;;;;5122485;28;20592;-65
2022/01/13 05:36:57;;;;;;;32.25;21.85;;;;;;;;;;5104470;28;20195;-65
2022/01/13 05:39:23;;;;;;;34.95;23.33;;;;;;;;;;5102119;28;20218;-65
2022/01/13 05:41:51;;;;;;;34.78;21.63;;;;;;;;;;5102309;28;20192;-66
2022/01/13 05:44:18;;;;;;;36.10;22.30;;;;;;;;;;5102086;28;20203;-66
2022/01/13 05:46:44;;;;;;;33.80;21.67;;;;;;;;;;5117319;28;20272;-66
2022/01/13 05:49:11;;;;;;;30.55;21.33;;;;;;;;;;5122732;28;20195;-66
2022/01/13 05:51:37;;;;;;;35.47;22.10;;;;;;;;;;5122520;28;20206;-66
2022/01/13 05:54:04;;;;;;;35.97;22.25;;;;;;;;;;5122542;28;20195;-65
2022/01/13 05:56:30;;;;;;;39.95;22.15;;;;;;;;;;5111736;28;20204;-67
2022/01/13 05:58:58;;;;;;;33.97;22.45;;;;;;;;;;5107279;28;20204;-66
2022/01/13 06:01:24;;;;;;;37.17;21.48;;;;;;;;;;5106944;28;20196;-66
2022/01/13 06:03:51;;;;;;;31.33;21.58;;;;;;;;;;5107802;28;20330;-67
2022/01/13 06:06:17;;;;;;;34.88;21.90;;;;;;;;;;5120489;28;20191;-67
2022/01/13 06:08:44;;;;;;;39.30;22.75;;;;;;;;;;5127389;28;20194;-68
2022/01/13 06:11:10;;;;;;;38.03;22.77;;;;;;;;;;5127637;28;20217;-68
2022/01/13 06:13:36;;;;;;;32.90;21.83;;;;;;;;;;5126989;28;20222;-69
2022/01/13 06:16:04;;;;;;;33.65;20.92;;;;;;;;;;5126447;28;20191;-68
2022/01/13 06:18:31;;;;;;;35.45;22.80;;;;;;;;;;5127467;28;20196;-68
2022/01/13 06:20:57;;;;;;;37.20;22.65;;;;;;;;;;5127312;28;20203;-68
2022/01/13 06:23:24;;;;;;;34.53;22.33;;;;;;;;;;5127256;28;20191;-68
2022/01/13 06:25:50;;;;;;;34.67;21.88;;;;;;;;;;5126762;28;20195;-68
2022/01/13 06:28:16;;;;;;;31.55;22.30;;;;;;;;;;5127597;28;20195;-68
2022/01/13 06:30:43;;;;;;;32.67;22.45;;;;;;;;;;5127010;28;20198;-67
2022/01/13 06:33:11;;;;;;;35.22;22.13;;;;;;;;;;5131212;28;20219;-67
2022/01/13 06:35:37;;;;;;;35.50;22.42;;;;;;;;;;5122178;28;20203;-67
2022/01/13 06:38:04;;;;;;;34.63;22.55;;;;;;;;;;5108766;28;20196;-65
2022/01/13 06:40:30;;;;;;;38.70;22.42;;;;;;;;;;5105516;28;20383;-65
2022/01/13 06:42:57;;;;;;;35.22;20.10;;;;;;;;;;5105248;28;20188;-65
2022/01/13 06:45:23;;;;;;;33.13;21.45;;;;;;;;;;5105698;28;20226;-65
2022/01/13 06:47:49;;;;;;;32.08;21.40;;;;;;;;;;5105593;28;20199;-65
2022/01/13 06:50:17;;;;;;;32.58;21.08;;;;;;;;;;5105104;28;20387;-66
2022/01/13 06:52:44;;;;;;;37.28;22.23;;;;;;;;;;5105099;28;20278;-68
2022/01/13 06:55:11;;;;;;;37.05;23.13;;;;;;;;;;5107666;28;20293;-68
2022/01/13 06:57:37;;;;;;;34.17;21.77;;;;;;;;;;5125697;28;20210;-69
2022/01/13 07:00:04;;;;;;;35.13;22.55;;;;;;;;;;5115168;28;20263;-59
2022/01/13 07:02:32;;;;;;;38.17;23.05;;;;;;;;;;5106489;27;20204;-60
2022/01/13 07:05:00;;;;;;;36.97;22.77;;;;;;;;;;5124609;27;20252;-61
2022/01/13 07:07:32;;;;;;;34.55;21.35;;;;;;;;;;5130959;27;20253;-61
2022/01/13 07:09:59;;;;;;;38.60;22.02;;;;;;;;;;5129046;27;20497;-54
2022/01/13 07:12:25;;;;;;;30.70;20.42;;;;;;;;;;5118944;28;20226;-54
2022/01/13 07:14:52;;;;;;;36.13;21.10;;;;;;;;;;5105903;28;20531;-54
2022/01/13 07:17:18;;;;;;;30.60;20.38;;;;;;;;;;5122691;27;20210;-57
2022/01/13 07:19:47;;;;;;;31.05;20.77;;;;;;;;;;5126676;27;20410;-55
2022/01/13 07:22:16;;;;;;;30.15;19.80;;;;;;;;;;5129229;27;20273;-56
2022/01/13 07:24:44;;;;;;;35.92;20.75;;;;;;;;;;5105381;27;20535;-56
2022/01/13 07:27:11;;;;;;;31.00;20.70;;;;;;;;;;5118002;28;20211;-58
2022/01/13 07:29:39;;;;;;;37.40;21.10;;;;;;;;;;5118708;28;20207;-56
2022/01/13 07:32:06;;;;;;;30.70;20.83;;;;;;;;;;5112596;28;20235;-57
2022/01/13 07:34:33;;;;;;;31.30;20.65;;;;;;;;;;5117640;28;20380;-56
2022/01/13 07:36:59;;;;;;;34.85;21.35;;;;;;;;;;5118690;28;20442;-56
2022/01/13 07:39:25;;;;;;;32.28;20.63;;;;;;;;;;5114251;28;20203;-55
2022/01/13 07:41:53;;;;;;;31.70;20.17;;;;;;;;;;5114876;28;20367;-55
2022/01/13 07:44:20;;;;;;;34.65;21.73;;;;;;;;;;5097537;28;20407;-54
2022/01/13 07:46:46;;;;;;;34.38;21.52;;;;;;;;;;5097693;28;20257;-54
2022/01/13 07:49:13;;;;;;;37.22;21.02;;;;;;;;;;5098420;28;20395;-55
2022/01/13 07:51:39;;;;;;;32.92;20.30;;;;;;;;;;5111723;28;20203;-54
2022/01/13 07:54:05;;;;;;;32.63;21.50;;;;;;;;;;5104560;28;20211;-53
2022/01/13 07:56:32;;;;;;;33.95;21.08;;;;;;;;;;5123483;27;20501;-53
2022/01/13 07:59:00;;;;;;;33.60;20.30;;;;;;;;;;5138712;27;20406;-54
2022/01/13 08:01:26;;;;;;;35.58;20.80;;;;;;;;;;5138376;27;20206;-54
2022/01/13 08:03:53;;;;;;;34.13;20.10;;;;;;;;;;5127861;27;20203;-54
2022/01/13 08:06:19;;;;;;;30.30;20.00;;;;;;;;;;5096711;28;20249;-55
2022/01/13 08:08:45;;;;;;;33.63;19.92;;;;;;;;;;5097754;28;20208;-54
2022/01/13 08:11:12;;;;;;;33.22;20.27;;;;;;;;;;5097724;28;20539;-55
2022/01/13 08:13:38;;;;;;;40.38;21.70;;;;;;;;;;5096731;28;20232;-56
2022/01/13 08:16:09;;;;;;;32.20;20.50;;;;;;;;;;5115894;27;20214;-54
2022/01/13 08:21:19;;;;;;;30.85;19.75;;;;;;;;;;5098692;28;20546;-61
2022/01/13 08:23:46;;;;;;;29.85;19.90;;;;;;;;;;5111967;28;20199;-61
2022/01/13 08:26:12;;;;;;;32.38;21.00;;;;;;;;;;5118506;28;20380;-62
2022/01/13 08:28:39;;;;;;;28.17;19.42;;;;;;;;;;5119111;28;20213;-62
2022/01/13 08:31:07;;;;;;;28.15;19.35;;;;;;;;;;5114977;28;20216;-61
2022/01/13 08:33:33;;;;;;;32.15;19.40;;;;;;;;;;5100984;28;20220;-61
2022/01/13 08:36:00;;;;;;;29.85;20.15;;;;;;;;;;5118018;27;20209;-62
2022/01/13 08:38:26;;;;;;;34.03;19.50;;;;;;;;;;5140316;27;20202;-62
2022/01/13 08:40:54;;;;;;;37.05;20.85;;;;;;;;;;5109404;27;20215;-60
2022/01/13 08:43:21;;;;;;;34.65;22.10;;;;;;;;;;5107237;28;20214;-61
2022/01/13 08:45:48;;;;;;;32.72;20.40;;;;;;;;;;5121387;28;20234;-61
2022/01/13 08:48:16;;;;;;;32.75;21.23;;;;;;;;;;5123754;28;20207;-61
2022/01/13 08:50:42;;;;;;;36.33;22.23;;;;;;;;;;5123348;28;20214;-61
2022/01/13 08:53:09;;;;;;;34.00;20.65;;;;;;;;;;5122777;28;20207;-61
2022/01/13 08:55:35;;;;;;;33.47;22.08;;;;;;;;;;5112759;27;20204;-60
2022/01/13 08:58:02;;;;;;;36.78;22.20;;;;;;;;;;5143147;27;20206;-61
2022/01/13 09:00:28;;;;;;;30.65;20.98;;;;;;;;;;5142128;27;20247;-61
2022/01/13 09:02:55;;;;;;;37.55;20.60;;;;;;;;;;5139024;27;20226;-61
2022/01/13 09:05:23;;;;;;;30.00;21.00;;;;;;;;;;5120616;28;20207;-61
2022/01/13 09:07:49;;;;;;;30.63;20.73;;;;;;;;;;5121247;28;20208;-61
2022/01/13 09:10:16;;;;;;;30.85;20.48;;;;;;;;;;5122032;28;20211;-61
2022/01/13 09:12:42;;;;;;;33.63;21.10;;;;;;;;;;5120310;28;20210;-61
2022/01/13 09:15:18;;;;;;;33.78;21.17;;;;;;;;;;5114711;28;20215;-60
2022/01/13 09:17:45;;;;;;;32.13;21.17;;;;;;;;;;5120828;28;20207;-61
2022/01/13 09:20:11;;;;;;;36.17;20.88;;;;;;;;;;5120901;28;20218;-61
2022/01/13 09:22:40;;;;;;;31.20;20.13;;;;;;;;;;5120364;28;20511;-60
2022/01/13 09:25:07;;;;;;;31.25;19.80;;;;;;;;;;5118793;28;20242;-61
2022/01/13 09:27:35;;;;;;;32.63;20.52;;;;;;;;;;5100167;28;20208;-61
2022/01/13 09:30:01;;;;;;;29.38;20.40;;;;;;;;;;5099940;28;20215;-61
2022/01/13 09:32:27;;;;;;;36.30;20.95;;;;;;;;;;5099327;28;20253;-61
2022/01/13 09:34:54;;;;;;;29.05;20.77;;;;;;;;;;5098483;28;20231;-60
2022/01/13 09:37:20;;;;;;;33.83;21.65;;;;;;;;;;5099666;28;20214;-61
2022/01/13 09:39:48;;;;;;;34.67;20.35;;;;;;;;;;5108069;28;20515;-61
2022/01/13 09:42:15;;;;;;;32.40;21.02;;;;;;;;;;5119508;28;20207;-62
2022/01/13 09:44:41;;;;;;;30.77;21.08;;;;;;;;;;5118471;28;20215;-61
2022/01/13 09:47:08;;;;;;;29.98;21.70;;;;;;;;;;5101482;28;20208;-62
2022/01/13 09:49:35;;;;;;;32.72;20.75;;;;;;;;;;5099721;28;20253;-60
2022/01/13 09:52:02;;;;;;;32.33;21.35;;;;;;;;;;5097774;28;20495;-60
2022/01/13 09:54:28;;;;;;;32.67;21.10;;;;;;;;;;5113449;28;20328;-59
2022/01/13 09:56:56;;;;;;;35.33;20.48;;;;;;;;;;5117452;28;20207;-60
2022/01/13 09:59:23;;;;;;;33.35;22.63;;;;;;;;;;5119845;28;20395;-59
2022/01/13 10:01:49;;;;;;;37.15;21.35;;;;;;;;;;5120162;28;20199;-59
2022/01/13 10:04:15;;;;;;;31.10;21.77;;;;;;;;;;5119893;28;20191;-60
2022/01/13 10:06:44;;;;;;;31.02;20.17;;;;;;;;;;5122782;28;20207;-59
2022/01/13 10:09:12;;;;;;;34.28;20.90;;;;;;;;;;5110180;28;20231;-58
2022/01/13 10:11:40;;;;;;;29.75;19.70;;;;;;;;;;5103378;28;20211;-60
2022/01/13 10:14:12;;;;;;;30.98;21.80;;;;;;;;;;5103560;28;20235;-59
2022/01/13 10:16:48;;;;;;;33.65;21.08;;;;;;;;;;5139335;27;20202;-59
2022/01/13 10:19:27;;;;;;;36.47;21.45;;;;;;;;;;5127332;27;20279;-59
2022/01/13 10:21:58;;;;;;;34.20;20.92;;;;;;;;;;5104234;28;20208;-58
2022/01/13 10:24:25;;;;;;;32.40;21.15;;;;;;;;;;5102032;28;20231;-60
2022/01/13 10:26:58;;;;;;;32.00;21.73;;;;;;;;;;5101757;28;20214;-61
2022/01/13 10:29:37;;;;;;;29.67;19.55;;;;;;;;;;5110963;28;20233;-61
2022/01/13 10:32:04;;;;;;;31.88;20.25;;;;;;;;;;5121631;28;20537;-62
2022/01/13 10:34:32;;;;;;;31.55;20.17;;;;;;;;;;5121248;28;20255;-61
2022/01/13 10:37:03;;;;;;;32.85;21.45;;;;;;;;;;5111947;28;20196;-59
2022/01/13 10:39:46;;;;;;;33.47;21.88;;;;;;;;;;5101700;28;20203;-59
2022/01/13 10:42:30;;;;;;;29.63;20.83;;;;;;;;;;5099087;28;20246;-59
2022/01/13 10:44:59;;;;;;;33.58;21.00;;;;;;;;;;5097826;28;20216;-60
2022/01/13 10:47:26;;;;;;;33.97;20.10;;;;;;;;;;5098583;28;20208;-59
2022/01/13 10:49:52;;;;;;;31.33;21.00;;;;;;;;;;5101751;28;20207;-60
2022/01/13 10:52:24;;;;;;;35.47;21.48;;;;;;;;;;5100258;28;20200;-57
2022/01/13 10:54:51;;;;;;;34.05;19.95;;;;;;;;;;5103792;28;20224;-59
2022/01/13 10:57:19;;;;;;;31.25;19.92;;;;;;;;;;5131271;27;20509;-60
2022/01/13 10:59:45;;;;;;;28.60;19.65;;;;;;;;;;5132687;27;20215;-60
2022/01/13 11:02:13;;;;;;;30.15;20.70;;;;;;;;;;5102240;28;20219;-60
2022/01/13 11:04:40;;;;;;;35.90;19.95;;;;;;;;;;5122542;28;20222;-60
2022/01/13 11:07:13;;;;;;;28.98;20.20;;;;;;;;;;5120514;28;20248;-55
2022/01/13 11:09:42;;;;;;;32.83;19.98;;;;;;;;;;5118947;28;20616;-57
2022/01/13 11:12:09;;;;;;;33.13;19.98;;;;;;;;;;5116884;28;20221;-58
2022/01/13 11:14:41;;;;;;;30.08;19.45;;;;;;;;;;5101153;28;20227;-60
2022/01/13 11:17:07;;;;;;;34.88;18.88;;;;;;;;;;5119823;28;20206;-60
2022/01/13 11:19:36;;;;;;;34.00;20.27;;;;;;;;;;5101356;28;20215;-61
2022/01/13 11:22:02;;;;;;;28.52;19.40;;;;;;;;;;5099950;28;20216;-61
2022/01/13 11:24:29;;;;;;;35.90;20.48;;;;;;;;;;5099880;28;20200;-60
2022/01/13 11:26:55;;;;;;;30.52;19.25;;;;;;;;;;5101299;28;20207;-61
2022/01/13 11:29:22;;;;;;;30.25;19.70;;;;;;;;;;5098738;28;20237;-57
2022/01/13 11:31:49;;;;;;;28.38;19.48;;;;;;;;;;5097779;28;20207;-55
2022/01/13 11:34:16;;;;;;;35.10;20.45;;;;;;;;;;5096995;28;20629;-55
2022/01/13 11:36:44;;;;;;;30.23;19.90;;;;;;;;;;5097324;28;20519;-55
2022/01/13 11:39:11;;;;;;;30.17;19.50;;;;;;;;;;5098191;28;20582;-55
2022/01/13 11:42:00;;;;;;;28.42;19.98;;;;;;;;;;5098166;28;20573;-57
2022/01/13 11:44:27;;;;;;;34.00;19.10;;;;;;;;;;5096623;28;20200;-57
2022/01/13 11:46:54;;;;;;;31.10;17.88;;;;;;;;;;5097012;28;20203;-57
2022/01/13 11:49:23;;;;;;;29.77;18.38;;;;;;;;;;5097988;28;20523;-57
2022/01/13 11:51:57;;;;;;;28.17;18.33;;;;;;;;;;5097787;28;20210;-56
2022/01/13 11:54:30;;;;;;;25.27;17.48;;;;;;;;;;5096968;28;20446;-56
2022/01/13 11:57:12;;;;;;;25.75;18.55;;;;;;;;;;5121945;27;20202;-57
2022/01/13 11:59:38;;;;;;;25.63;17.50;;;;;;;;;;5134902;27;20414;-57
2022/01/13 12:02:23;;;;;;;24.20;17.60;;;;;;;;;;5109737;28;20277;-56
2022/01/13 12:05:00;;;;;;;26.27;18.73;;;;;;;;;;5104222;28;20226;-57
2022/01/13 12:07:37;;;;;;;22.83;17.35;;;;;;;;;;5116980;28;20213;-55
2022/01/13 12:10:05;;;;;;;25.65;17.60;;;;;;;;;;5117673;28;20215;-57
2022/01/13 12:12:32;;;;;;;22.13;16.92;;;;;;;;;;5105140;28;20223;-56
2022/01/13 12:15:15;;;;;;;24.33;17.10;;;;;;;;;;5104123;28;20559;-55
2022/01/13 12:17:46;;;;;;;31.88;17.15;;;;;;;;;;5129646;27;20219;-57
2022/01/13 12:20:22;;;;;;;24.17;17.15;;;;;;;;;;5120048;28;20211;-56
2022/01/13 12:23:01;;;;;;;35.95;19.80;;;;;;;;;;5120513;28;20203;-56
2022/01/13 12:25:31;;;;;;;22.52;16.75;;;;;;;;;;5113471;28;20270;-56
2022/01/13 12:27:58;;;;;;;25.33;17.17;;;;;;;;;;5101651;28;20209;-55
2022/01/13 12:30:26;;;;;;;30.83;18.20;;;;;;;;;;5111411;28;20202;-54
2022/01/13 12:32:54;;;;;;;28.48;19.13;;;;;;;;;;5108853;28;20200;-55
2022/01/13 12:35:32;;;;;;;29.38;17.35;;;;;;;;;;5106053;27;20457;-57
2022/01/13 12:38:01;;;;;;;31.77;18.70;;;;;;;;;;5115681;27;20560;-57
2022/01/13 12:40:33;;;;;;;32.28;17.75;;;;;;;;;;5120328;27;20187;-56
2022/01/13 12:43:12;;;;;;;27.40;17.20;;;;;;;;;;5118367;28;20480;-57
2022/01/13 12:45:39;;;;;;;30.08;19.45;;;;;;;;;;5134370;27;20214;-55
2022/01/13 12:48:07;;;;;;;29.70;18.98;;;;;;;;;;5098726;28;20203;-57
2022/01/13 12:50:35;;;;;;;27.23;19.63;;;;;;;;;;5098778;28;20204;-58
2022/01/13 12:53:11;;;;;;;22.80;17.48;;;;;;;;;;5100243;28;20535;-55
2022/01/13 12:55:38;;;;;;;27.02;17.85;;;;;;;;;;5133524;27;20252;-58
2022/01/13 12:58:06;;;;;;;21.27;15.93;;;;;;;;;;5137651;27;20392;-57
2022/01/13 13:00:32;;;;;;;22.52;17.75;;;;;;;;;;5113427;27;20207;-55
2022/01/13 13:03:05;;;;;;;28.23;17.63;;;;;;;;;;5100825;28;20526;-57
2022/01/13 13:05:33;;;;;;;22.65;17.67;;;;;;;;;;5111771;28;20176;-56
2022/01/13 13:08:00;;;;;;;25.40;16.70;;;;;;;;;;5113689;28;20199;-56
2022/01/13 13:10:29;;;;;;;23.02;16.77;;;;;;;;;;5119408;28;20241;-56
2022/01/13 13:12:56;;;;;;;25.83;17.13;;;;;;;;;;5139796;27;20277;-57
2022/01/13 13:15:40;;;;;;;22.88;17.30;;;;;;;;;;5122217;27;20238;-58
2022/01/13 13:18:08;;;;;;;22.40;16.35;;;;;;;;;;5119746;28;20502;-57
2022/01/13 13:20:35;;;;;;;23.73;16.65;;;;;;;;;;5106878;28;20212;-58
2022/01/13 13:23:03;;;;;;;26.20;17.77;;;;;;;;;;5118450;28;20199;-58
2022/01/13 13:25:32;;;;;;;21.02;16.45;;;;;;;;;;5105017;28;20196;-56
2022/01/13 13:28:16;;;;;;;26.77;17.30;;;;;;;;;;5099166;28;20203;-57
2022/01/13 13:30:43;;;;;;;24.25;16.60;;;;;;;;;;5098969;28;20523;-57
2022/01/13 13:33:10;;;;;;;24.45;16.00;;;;;;;;;;5100567;28;20200;-56
2022/01/13 13:35:36;;;;;;;24.40;16.17;;;;;;;;;;5098396;28;20547;-55
2022/01/13 13:38:02;;;;;;;24.42;16.58;;;;;;;;;;5098868;28;20204;-56
2022/01/13 13:40:30;;;;;;;25.73;17.10;;;;;;;;;;5128912;27;20375;-56
2022/01/13 13:43:01;;;;;;;22.95;16.67;;;;;;;;;;5138390;28;20202;-57
2022/01/13 13:45:27;;;;;;;22.63;16.65;;;;;;;;;;5118741;28;20219;-55
2022/01/13 13:47:54;;;;;;;25.10;17.45;;;;;;;;;;5117707;28;20445;-58
2022/01/13 13:50:21;;;;;;;21.15;16.35;;;;;;;;;;5099469;28;20203;-57
2022/01/13 13:52:47;;;;;;;21.17;15.50;;;;;;;;;;5110272;28;20210;-56
2022/01/13 13:55:14;;;;;;;25.52;15.85;;;;;;;;;;5098834;28;20227;-58
2022/01/13 13:57:43;;;;;;;23.17;15.98;;;;;;;;;;5098967;28;20203;-55
2022/01/13 14:00:10;;;;;;;23.58;15.50;;;;;;;;;;5098506;28;20219;-56
2022/01/13 14:02:37;;;;;;;22.80;16.30;;;;;;;;;;5098122;28;20203;-57
2022/01/13 14:05:04;;;;;;;24.58;17.52;;;;;;;;;;5097912;28;20196;-57
2022/01/13 14:07:31;;;;;;;27.92;17.30;;;;;;;;;;5098678;28;20203;-58
2022/01/13 14:10:03;;;;;;;22.95;16.63;;;;;;;;;;5115171;28;20214;-57
2022/01/13 14:12:30;;;;;;;24.33;16.88;;;;;;;;;;5114413;28;20237;-58
2022/01/13 14:15:10;;;;;;;26.85;17.00;;;;;;;;;;5115308;28;20218;-58
2022/01/13 14:17:37;;;;;;;27.55;16.58;;;;;;;;;;5099200;28;20200;-58
2022/01/13 14:20:04;;;;;;;22.65;16.10;;;;;;;;;;5099036;28;20219;-57
2022/01/13 14:22:31;;;;;;;24.52;15.43;;;;;;;;;;5099109;28;20204;-58
2022/01/13 14:24:58;;;;;;;23.02;14.50;;;;;;;;;;5099086;28;20379;-57
2022/01/13 14:27:26;;;;;;;20.85;13.38;;;;;;;;;;5100323;28;20192;-57
2022/01/13 14:29:53;;;;;;;22.73;14.65;;;;;;;;;;5099525;28;20231;-58
2022/01/13 14:32:21;;;;;;;25.50;13.75;;;;;;;;;;5108442;28;20494;-55
2022/01/13 14:34:49;;;;;;;19.08;14.20;;;;;;;;;;5097210;28;20270;-56